sensor_id;sensor_type;location;lat;lon;timestamp;P1;durP1;ratioP1;P2;durP2;ratioP2
61385;SDS011;47256;18.904;-99.054;2023-03-14T00:01:25;4.43;;;2.10;;
61385;SDS011;47256;18.904;-99.054;2023-03-14T00:03:53;3.80;;;2.20;;
61385;SDS011;47256;18.904;-99.054;2023-03-14T00:06:20;3.38;;;2.67;;
61385;SDS011;47256;18.904;-99.054;2023-03-14T00:08:49;4.50;;;1.90;;
61385;SDS011;47256;18.904;-99.054;2023-03-14T00:11:19;3.28;;;2.50;;
61385;SDS011;47256;18.904;-99.054;2023-03-14T00:13:48;9.98;;;1.88;;
61385;SDS011;47256;18.904;-99.054;2023-03-14T00:16:20;3.67;;;2.35;;
61385;SDS011;47256;18.904;-99.054;2023-03-14T00:18:48;9.57;;;2.28;;
61385;SDS011;47256;18.904;-99.054;2023-03-14T00:21:17;2.83;;;2.17;;
61385;SDS011;47256;18.904;-99.054;2023-03-14T00:23:45;5.15;;;2.80;;
61385;SDS011;47256;18.904;-99.054;2023-03-14T00:26:13;5.47;;;2.60;;
61385;SDS011;47256;18.904;-99.054;2023-03-14T00:28:43;3.58;;;2.20;;
61385;SDS011;47256;18.904;-99.054;2023-03-14T00:31:14;5.07;;;2.35;;
61385;SDS011;47256;18.904;-99.054;2023-03-14T00:33:43;18.73;;;4.75;;
61385;SDS011;47256;18.904;-99.054;2023-03-14T00:36:13;9.38;;;1.90;;
61385;SDS011;47256;18.904;-99.054;2023-03-14T00:38:46;2.65;;;1.60;;
61385;SDS011;47256;18.904;-99.054;2023-03-14T00:41:22;14.98;;;2.40;;
61385;SDS011;47256;18.904;-99.054;2023-03-14T00:43:50;2.85;;;1.88;;
61385;SDS011;47256;18.904;-99.054;2023-03-14T00:46:19;7.65;;;2.58;;
61385;SDS011;47256;18.904;-99.054;2023-03-14T00:48:46;5.80;;;2.15;;
61385;SDS011;47256;18.904;-99.054;2023-03-14T00:51:15;9.25;;;1.73;;
61385;SDS011;47256;18.904;-99.054;2023-03-14T00:53:49;4.10;;;1.60;;
61385;SDS011;47256;18.904;-99.054;2023-03-14T00:56:17;1.65;;;1.42;;
61385;SDS011;47256;18.904;-99.054;2023-03-14T00:58:44;2.03;;;1.65;;
61385;SDS011;47256;18.904;-99.054;2023-03-14T01:01:16;2.90;;;1.70;;
61385;SDS011;47256;18.904;-99.054;2023-03-14T01:03:45;3.20;;;1.45;;
61385;SDS011;47256;18.904;-99.054;2023-03-14T01:06:20;3.40;;;1.67;;
61385;SDS011;47256;18.904;-99.054;2023-03-14T01:08:50;2.50;;;1.52;;
61385;SDS011;47256;18.904;-99.054;2023-03-14T01:11:23;11.10;;;2.70;;
61385;SDS011;47256;18.904;-99.054;2023-03-14T01:13:55;9.45;;;2.35;;
61385;SDS011;47256;18.904;-99.054;2023-03-14T01:16:28;3.05;;;1.75;;
61385;SDS011;47256;18.904;-99.054;2023-03-14T01:19:00;6.50;;;1.80;;
61385;SDS011;47256;18.904;-99.054;2023-03-14T01:21:29;8.90;;;1.80;;
61385;SDS011;47256;18.904;-99.054;2023-03-14T01:23:58;2.67;;;1.80;;
61385;SDS011;47256;18.904;-99.054;2023-03-14T01:26:27;2.42;;;2.22;;
61385;SDS011;47256;18.904;-99.054;2023-03-14T01:28:57;4.55;;;1.90;;
61385;SDS011;47256;18.904;-99.054;2023-03-14T01:31:26;4.07;;;1.50;;
61385;SDS011;47256;18.904;-99.054;2023-03-14T01:33:54;7.97;;;2.10;;
61385;SDS011;47256;18.904;-99.054;2023-03-14T01:36:21;2.80;;;1.83;;
61385;SDS011;47256;18.904;-99.054;2023-03-14T01:38:54;2.88;;;1.98;;
61385;SDS011;47256;18.904;-99.054;2023-03-14T01:41:24;5.85;;;2.60;;
61385;SDS011;47256;18.904;-99.054;2023-03-14T01:43:56;5.95;;;2.60;;
61385;SDS011;47256;18.904;-99.054;2023-03-14T01:46:45;3.08;;;2.00;;
61385;SDS011;47256;18.904;-99.054;2023-03-14T01:49:17;3.20;;;1.70;;
61385;SDS011;47256;18.904;-99.054;2023-03-14T01:52:24;7.22;;;1.98;;
61385;SDS011;47256;18.904;-99.054;2023-03-14T01:54:59;7.80;;;2.40;;
61385;SDS011;47256;18.904;-99.054;2023-03-14T01:57:49;4.55;;;1.80;;
61385;SDS011;47256;18.904;-99.054;2023-03-14T02:00:22;8.70;;;2.45;;
61385;SDS011;47256;18.904;-99.054;2023-03-14T02:03:05;4.47;;;2.15;;
61385;SDS011;47256;18.904;-99.054;2023-03-14T02:05:39;20.98;;;2.30;;
61385;SDS011;47256;18.904;-99.054;2023-03-14T02:08:14;3.97;;;1.92;;
61385;SDS011;47256;18.904;-99.054;2023-03-14T02:10:53;5.85;;;2.15;;
61385;SDS011;47256;18.904;-99.054;2023-03-14T02:13:42;4.50;;;1.85;;
61385;SDS011;47256;18.904;-99.054;2023-03-14T02:16:35;3.80;;;1.70;;
61385;SDS011;47256;18.904;-99.054;2023-03-14T02:19:05;4.93;;;1.48;;
61385;SDS011;47256;18.904;-99.054;2023-03-14T02:22:05;3.10;;;1.63;;
61385;SDS011;47256;18.904;-99.054;2023-03-14T02:27:32;21.35;;;2.15;;
61385;SDS011;47256;18.904;-99.054;2023-03-14T02:32:37;3.80;;;1.42;;
61385;SDS011;47256;18.904;-99.054;2023-03-14T02:35:12;3.90;;;1.17;;
61385;SDS011;47256;18.904;-99.054;2023-03-14T02:40:52;4.72;;;1.45;;
61385;SDS011;47256;18.904;-99.054;2023-03-14T02:43:38;4.88;;;1.40;;
61385;SDS011;47256;18.904;-99.054;2023-03-14T02:46:13;3.80;;;2.28;;
61385;SDS011;47256;18.904;-99.054;2023-03-14T02:49:03;11.40;;;1.40;;
61385;SDS011;47256;18.904;-99.054;2023-03-14T02:51:38;1.38;;;1.25;;
61385;SDS011;47256;18.904;-99.054;2023-03-14T02:54:22;2.03;;;1.65;;
61385;SDS011;47256;18.904;-99.054;2023-03-14T02:56:59;2.83;;;1.80;;
61385;SDS011;47256;18.904;-99.054;2023-03-14T02:59:34;3.95;;;2.33;;
61385;SDS011;47256;18.904;-99.054;2023-03-14T03:02:09;3.28;;;2.10;;
61385;SDS011;47256;18.904;-99.054;2023-03-14T03:04:40;14.18;;;2.15;;
61385;SDS011;47256;18.904;-99.054;2023-03-14T03:07:18;2.70;;;2.10;;
61385;SDS011;47256;18.904;-99.054;2023-03-14T03:09:46;4.10;;;2.45;;
61385;SDS011;47256;18.904;-99.054;2023-03-14T03:12:19;3.90;;;2.10;;
61385;SDS011;47256;18.904;-99.054;2023-03-14T03:14:52;2.40;;;2.20;;
61385;SDS011;47256;18.904;-99.054;2023-03-14T03:17:22;3.63;;;2.67;;
61385;SDS011;47256;18.904;-99.054;2023-03-14T03:19:52;2.22;;;1.95;;
61385;SDS011;47256;18.904;-99.054;2023-03-14T03:22:27;7.05;;;2.08;;
61385;SDS011;47256;18.904;-99.054;2023-03-14T03:24:58;18.08;;;2.67;;
61385;SDS011;47256;18.904;-99.054;2023-03-14T03:27:33;13.18;;;8.38;;
61385;SDS011;47256;18.904;-99.054;2023-03-14T03:30:08;5.30;;;3.72;;
61385;SDS011;47256;18.904;-99.054;2023-03-14T03:32:40;5.63;;;2.92;;
61385;SDS011;47256;18.904;-99.054;2023-03-14T03:35:15;6.10;;;3.72;;
61385;SDS011;47256;18.904;-99.054;2023-03-14T03:37:50;3.88;;;1.92;;
61385;SDS011;47256;18.904;-99.054;2023-03-14T03:43:24;7.68;;;2.38;;
61385;SDS011;47256;18.904;-99.054;2023-03-14T03:45:55;3.28;;;2.33;;
61385;SDS011;47256;18.904;-99.054;2023-03-14T03:48:24;8.48;;;3.05;;
61385;SDS011;47256;18.904;-99.054;2023-03-14T03:50:54;26.75;;;2.72;;
61385;SDS011;47256;18.904;-99.054;2023-03-14T03:53:50;2.28;;;1.73;;
61385;SDS011;47256;18.904;-99.054;2023-03-14T03:56:26;3.80;;;2.55;;
61385;SDS011;47256;18.904;-99.054;2023-03-14T03:59:01;3.33;;;1.45;;
61385;SDS011;47256;18.904;-99.054;2023-03-14T04:01:32;1.85;;;1.65;;
61385;SDS011;47256;18.904;-99.054;2023-03-14T04:04:07;2.53;;;1.50;;
61385;SDS011;47256;18.904;-99.054;2023-03-14T04:06:37;2.75;;;1.90;;
61385;SDS011;47256;18.904;-99.054;2023-03-14T04:09:14;1.90;;;1.20;;
61385;SDS011;47256;18.904;-99.054;2023-03-14T04:11:46;2.85;;;1.38;;
61385;SDS011;47256;18.904;-99.054;2023-03-14T04:14:31;6.22;;;1.83;;
61385;SDS011;47256;18.904;-99.054;2023-03-14T04:17:15;4.00;;;2.03;;
61385;SDS011;47256;18.904;-99.054;2023-03-14T04:19:47;2.83;;;1.67;;
61385;SDS011;47256;18.904;-99.054;2023-03-14T04:22:42;4.15;;;2.38;;
61385;SDS011;47256;18.904;-99.054;2023-03-14T04:25:12;7.10;;;2.40;;
61385;SDS011;47256;18.904;-99.054;2023-03-14T04:27:50;2.78;;;1.35;;
61385;SDS011;47256;18.904;-99.054;2023-03-14T04:30:24;2.80;;;1.73;;
61385;SDS011;47256;18.904;-99.054;2023-03-14T04:33:01;2.90;;;1.77;;
61385;SDS011;47256;18.904;-99.054;2023-03-14T04:35:34;7.07;;;1.77;;
61385;SDS011;47256;18.904;-99.054;2023-03-14T04:38:08;4.20;;;1.75;;
61385;SDS011;47256;18.904;-99.054;2023-03-14T04:40:38;4.85;;;1.52;;
61385;SDS011;47256;18.904;-99.054;2023-03-14T04:43:19;3.22;;;1.98;;
61385;SDS011;47256;18.904;-99.054;2023-03-14T04:45:55;5.50;;;3.10;;
61385;SDS011;47256;18.904;-99.054;2023-03-14T04:48:24;7.95;;;3.10;;
61385;SDS011;47256;18.904;-99.054;2023-03-14T04:50:54;11.15;;;2.40;;
61385;SDS011;47256;18.904;-99.054;2023-03-14T04:53:22;6.57;;;3.05;;
61385;SDS011;47256;18.904;-99.054;2023-03-14T04:55:54;4.60;;;2.47;;
61385;SDS011;47256;18.904;-99.054;2023-03-14T04:58:26;4.88;;;2.78;;
61385;SDS011;47256;18.904;-99.054;2023-03-14T05:01:01;4.88;;;2.10;;
61385;SDS011;47256;18.904;-99.054;2023-03-14T05:03:50;8.15;;;2.53;;
61385;SDS011;47256;18.904;-99.054;2023-03-14T05:06:30;5.13;;;2.97;;
61385;SDS011;47256;18.904;-99.054;2023-03-14T05:09:30;3.88;;;2.17;;
61385;SDS011;47256;18.904;-99.054;2023-03-14T05:12:22;7.90;;;2.38;;
61385;SDS011;47256;18.904;-99.054;2023-03-14T05:14:56;2.47;;;2.28;;
61385;SDS011;47256;18.904;-99.054;2023-03-14T05:17:37;2.22;;;1.73;;
61385;SDS011;47256;18.904;-99.054;2023-03-14T05:20:26;5.45;;;2.17;;
61385;SDS011;47256;18.904;-99.054;2023-03-14T05:22:53;2.92;;;1.92;;
61385;SDS011;47256;18.904;-99.054;2023-03-14T05:25:47;2.20;;;2.00;;
61385;SDS011;47256;18.904;-99.054;2023-03-14T05:28:32;8.63;;;2.08;;
61385;SDS011;47256;18.904;-99.054;2023-03-14T05:31:19;10.50;;;2.92;;
61385;SDS011;47256;18.904;-99.054;2023-03-14T05:34:10;8.25;;;2.78;;
61385;SDS011;47256;18.904;-99.054;2023-03-14T05:37:01;13.57;;;2.42;;
61385;SDS011;47256;18.904;-99.054;2023-03-14T05:39:41;4.28;;;2.40;;
61385;SDS011;47256;18.904;-99.054;2023-03-14T05:42:21;8.45;;;2.97;;
61385;SDS011;47256;18.904;-99.054;2023-03-14T05:45:13;9.43;;;2.72;;
61385;SDS011;47256;18.904;-99.054;2023-03-14T05:48:10;3.42;;;2.22;;
61385;SDS011;47256;18.904;-99.054;2023-03-14T05:50:56;8.07;;;2.30;;
61385;SDS011;47256;18.904;-99.054;2023-03-14T05:53:37;4.25;;;2.40;;
61385;SDS011;47256;18.904;-99.054;2023-03-14T05:56:24;3.27;;;2.07;;
61385;SDS011;47256;18.904;-99.054;2023-03-14T05:59:10;5.97;;;3.25;;
61385;SDS011;47256;18.904;-99.054;2023-03-14T06:02:03;3.88;;;2.33;;
61385;SDS011;47256;18.904;-99.054;2023-03-14T06:04:43;3.15;;;1.98;;
61385;SDS011;47256;18.904;-99.054;2023-03-14T06:07:13;6.20;;;1.70;;
61385;SDS011;47256;18.904;-99.054;2023-03-14T06:09:41;5.78;;;2.40;;
61385;SDS011;47256;18.904;-99.054;2023-03-14T06:12:10;3.10;;;2.05;;
61385;SDS011;47256;18.904;-99.054;2023-03-14T06:14:41;1.70;;;1.55;;
61385;SDS011;47256;18.904;-99.054;2023-03-14T06:17:10;5.57;;;3.25;;
61385;SDS011;47256;18.904;-99.054;2023-03-14T06:19:46;7.93;;;2.28;;
61385;SDS011;47256;18.904;-99.054;2023-03-14T06:22:14;4.20;;;2.17;;
61385;SDS011;47256;18.904;-99.054;2023-03-14T06:24:43;8.15;;;2.28;;
61385;SDS011;47256;18.904;-99.054;2023-03-14T06:27:15;3.60;;;1.98;;
61385;SDS011;47256;18.904;-99.054;2023-03-14T06:29:45;3.95;;;2.08;;
61385;SDS011;47256;18.904;-99.054;2023-03-14T06:32:12;7.63;;;2.72;;
61385;SDS011;47256;18.904;-99.054;2023-03-14T06:34:39;4.45;;;1.98;;
61385;SDS011;47256;18.904;-99.054;2023-03-14T06:37:07;4.97;;;2.63;;
61385;SDS011;47256;18.904;-99.054;2023-03-14T06:39:35;5.85;;;3.17;;
61385;SDS011;47256;18.904;-99.054;2023-03-14T06:42:16;3.55;;;2.42;;
61385;SDS011;47256;18.904;-99.054;2023-03-14T06:44:44;4.88;;;2.45;;
61385;SDS011;47256;18.904;-99.054;2023-03-14T06:47:12;4.38;;;2.10;;
61385;SDS011;47256;18.904;-99.054;2023-03-14T06:49:44;2.55;;;2.17;;
61385;SDS011;47256;18.904;-99.054;2023-03-14T06:52:14;5.72;;;3.40;;
61385;SDS011;47256;18.904;-99.054;2023-03-14T06:54:43;8.05;;;4.07;;
61385;SDS011;47256;18.904;-99.054;2023-03-14T06:57:10;6.35;;;3.40;;
61385;SDS011;47256;18.904;-99.054;2023-03-14T06:59:38;8.65;;;3.33;;
61385;SDS011;47256;18.904;-99.054;2023-03-14T07:02:08;7.43;;;2.63;;
61385;SDS011;47256;18.904;-99.054;2023-03-14T07:04:39;6.63;;;2.28;;
61385;SDS011;47256;18.904;-99.054;2023-03-14T07:07:07;8.40;;;2.53;;
61385;SDS011;47256;18.904;-99.054;2023-03-14T07:09:35;2.88;;;2.33;;
61385;SDS011;47256;18.904;-99.054;2023-03-14T07:12:03;6.40;;;2.40;;
61385;SDS011;47256;18.904;-99.054;2023-03-14T07:14:31;3.95;;;2.35;;
61385;SDS011;47256;18.904;-99.054;2023-03-14T07:16:59;2.17;;;1.95;;
61385;SDS011;47256;18.904;-99.054;2023-03-14T07:19:27;6.78;;;2.85;;
61385;SDS011;47256;18.904;-99.054;2023-03-14T07:21:55;5.18;;;2.13;;
61385;SDS011;47256;18.904;-99.054;2023-03-14T07:24:26;2.88;;;2.30;;
61385;SDS011;47256;18.904;-99.054;2023-03-14T07:26:54;4.63;;;2.05;;
61385;SDS011;47256;18.904;-99.054;2023-03-14T07:29:22;5.45;;;1.60;;
61385;SDS011;47256;18.904;-99.054;2023-03-14T07:31:51;13.85;;;2.95;;
61385;SDS011;47256;18.904;-99.054;2023-03-14T07:34:20;3.50;;;2.88;;
61385;SDS011;47256;18.904;-99.054;2023-03-14T07:36:50;7.07;;;2.53;;
61385;SDS011;47256;18.904;-99.054;2023-03-14T07:39:17;15.35;;;2.58;;
61385;SDS011;47256;18.904;-99.054;2023-03-14T07:42:05;6.10;;;3.03;;
61385;SDS011;47256;18.904;-99.054;2023-03-14T07:44:37;7.38;;;2.08;;
61385;SDS011;47256;18.904;-99.054;2023-03-14T07:47:09;4.32;;;2.08;;
61385;SDS011;47256;18.904;-99.054;2023-03-14T07:49:36;4.82;;;2.53;;
61385;SDS011;47256;18.904;-99.054;2023-03-14T07:52:05;6.10;;;2.33;;
61385;SDS011;47256;18.904;-99.054;2023-03-14T07:54:32;9.35;;;2.95;;
61385;SDS011;47256;18.904;-99.054;2023-03-14T07:57:02;8.95;;;2.50;;
61385;SDS011;47256;18.904;-99.054;2023-03-14T07:59:29;8.77;;;2.28;;
61385;SDS011;47256;18.904;-99.054;2023-03-14T08:01:57;3.28;;;1.95;;
61385;SDS011;47256;18.904;-99.054;2023-03-14T08:04:24;5.00;;;2.95;;
61385;SDS011;47256;18.904;-99.054;2023-03-14T08:06:53;4.65;;;2.47;;
61385;SDS011;47256;18.904;-99.054;2023-03-14T08:09:21;9.48;;;2.30;;
61385;SDS011;47256;18.904;-99.054;2023-03-14T08:11:50;4.70;;;2.03;;
61385;SDS011;47256;18.904;-99.054;2023-03-14T08:14:17;2.95;;;1.67;;
61385;SDS011;47256;18.904;-99.054;2023-03-14T08:16:44;2.97;;;2.15;;
61385;SDS011;47256;18.904;-99.054;2023-03-14T08:19:12;5.13;;;2.65;;
61385;SDS011;47256;18.904;-99.054;2023-03-14T08:21:39;3.33;;;2.20;;
61385;SDS011;47256;18.904;-99.054;2023-03-14T08:24:06;4.20;;;2.75;;
61385;SDS011;47256;18.904;-99.054;2023-03-14T08:26:33;2.53;;;2.10;;
61385;SDS011;47256;18.904;-99.054;2023-03-14T08:29:01;3.53;;;2.50;;
61385;SDS011;47256;18.904;-99.054;2023-03-14T08:31:30;3.72;;;2.05;;
61385;SDS011;47256;18.904;-99.054;2023-03-14T08:34:00;7.30;;;2.28;;
61385;SDS011;47256;18.904;-99.054;2023-03-14T08:36:28;4.28;;;2.38;;
61385;SDS011;47256;18.904;-99.054;2023-03-14T08:39:00;8.23;;;2.35;;
61385;SDS011;47256;18.904;-99.054;2023-03-14T08:41:31;2.28;;;1.98;;
61385;SDS011;47256;18.904;-99.054;2023-03-14T08:44:00;11.52;;;3.13;;
61385;SDS011;47256;18.904;-99.054;2023-03-14T08:46:29;4.95;;;2.70;;
61385;SDS011;47256;18.904;-99.054;2023-03-14T08:48:57;6.60;;;3.22;;
61385;SDS011;47256;18.904;-99.054;2023-03-14T08:51:24;5.55;;;2.63;;
61385;SDS011;47256;18.904;-99.054;2023-03-14T08:53:59;5.45;;;3.55;;
61385;SDS011;47256;18.904;-99.054;2023-03-14T08:56:26;5.63;;;3.15;;
61385;SDS011;47256;18.904;-99.054;2023-03-14T08:58:55;5.45;;;2.40;;
61385;SDS011;47256;18.904;-99.054;2023-03-14T09:01:25;4.10;;;2.50;;
61385;SDS011;47256;18.904;-99.054;2023-03-14T09:03:53;7.00;;;3.20;;
61385;SDS011;47256;18.904;-99.054;2023-03-14T09:06:21;5.30;;;2.80;;
61385;SDS011;47256;18.904;-99.054;2023-03-14T09:08:48;4.32;;;3.13;;
61385;SDS011;47256;18.904;-99.054;2023-03-14T09:11:15;4.47;;;2.75;;
61385;SDS011;47256;18.904;-99.054;2023-03-14T09:13:44;6.70;;;3.00;;
61385;SDS011;47256;18.904;-99.054;2023-03-14T09:16:13;7.10;;;2.88;;
61385;SDS011;47256;18.904;-99.054;2023-03-14T09:18:40;4.50;;;2.80;;
61385;SDS011;47256;18.904;-99.054;2023-03-14T09:21:09;4.47;;;2.75;;
61385;SDS011;47256;18.904;-99.054;2023-03-14T09:23:36;5.57;;;2.72;;
61385;SDS011;47256;18.904;-99.054;2023-03-14T09:26:07;9.70;;;2.63;;
61385;SDS011;47256;18.904;-99.054;2023-03-14T09:28:34;5.57;;;2.90;;
61385;SDS011;47256;18.904;-99.054;2023-03-14T09:31:10;6.47;;;2.80;;
61385;SDS011;47256;18.904;-99.054;2023-03-14T09:33:41;7.22;;;3.05;;
61385;SDS011;47256;18.904;-99.054;2023-03-14T09:36:09;6.93;;;2.97;;
61385;SDS011;47256;18.904;-99.054;2023-03-14T09:38:36;9.48;;;3.40;;
61385;SDS011;47256;18.904;-99.054;2023-03-14T09:41:16;6.22;;;3.15;;
61385;SDS011;47256;18.904;-99.054;2023-03-14T09:46:51;4.07;;;2.75;;
61385;SDS011;47256;18.904;-99.054;2023-03-14T09:49:28;4.75;;;2.60;;
61385;SDS011;47256;18.904;-99.054;2023-03-14T09:52:16;5.28;;;2.83;;
61385;SDS011;47256;18.904;-99.054;2023-03-14T09:54:57;6.60;;;2.95;;
61385;SDS011;47256;18.904;-99.054;2023-03-14T09:57:32;9.15;;;2.60;;
61385;SDS011;47256;18.904;-99.054;2023-03-14T10:00:04;7.63;;;3.50;;
61385;SDS011;47256;18.904;-99.054;2023-03-14T10:02:46;3.42;;;2.75;;
61385;SDS011;47256;18.904;-99.054;2023-03-14T10:05:28;7.47;;;3.65;;
61385;SDS011;47256;18.904;-99.054;2023-03-14T10:07:56;4.63;;;2.67;;
61385;SDS011;47256;18.904;-99.054;2023-03-14T10:10:24;4.18;;;2.60;;
61385;SDS011;47256;18.904;-99.054;2023-03-14T10:13:39;6.88;;;3.03;;
61385;SDS011;47256;18.904;-99.054;2023-03-14T10:15:55;7.18;;;3.53;;
61385;SDS011;47256;18.904;-99.054;2023-03-14T10:18:25;5.78;;;2.25;;
61385;SDS011;47256;18.904;-99.054;2023-03-14T10:21:05;4.32;;;2.50;;
61385;SDS011;47256;18.904;-99.054;2023-03-14T10:24:06;8.80;;;2.10;;
61385;SDS011;47256;18.904;-99.054;2023-03-14T10:26:36;6.65;;;3.13;;
61385;SDS011;47256;18.904;-99.054;2023-03-14T10:29:11;4.40;;;2.67;;
61385;SDS011;47256;18.904;-99.054;2023-03-14T10:31:59;4.30;;;2.83;;
61385;SDS011;47256;18.904;-99.054;2023-03-14T10:34:34;5.63;;;3.20;;
61385;SDS011;47256;18.904;-99.054;2023-03-14T10:37:20;6.10;;;3.08;;
61385;SDS011;47256;18.904;-99.054;2023-03-14T10:39:52;14.10;;;3.80;;
61385;SDS011;47256;18.904;-99.054;2023-03-14T10:42:28;7.03;;;2.92;;
61385;SDS011;47256;18.904;-99.054;2023-03-14T10:45:04;3.50;;;2.45;;
61385;SDS011;47256;18.904;-99.054;2023-03-14T10:47:53;14.52;;;3.88;;
61385;SDS011;47256;18.904;-99.054;2023-03-14T10:50:28;8.82;;;3.28;;
61385;SDS011;47256;18.904;-99.054;2023-03-14T10:53:01;6.03;;;2.75;;
61385;SDS011;47256;18.904;-99.054;2023-03-14T10:55:39;9.90;;;3.28;;
61385;SDS011;47256;18.904;-99.054;2023-03-14T10:58:27;8.90;;;3.67;;
61385;SDS011;47256;18.904;-99.054;2023-03-14T11:03:36;10.18;;;4.40;;
61385;SDS011;47256;18.904;-99.054;2023-03-14T11:06:20;7.60;;;3.95;;
61385;SDS011;47256;18.904;-99.054;2023-03-14T11:09:19;8.05;;;3.90;;
61385;SDS011;47256;18.904;-99.054;2023-03-14T11:12:29;4.30;;;2.70;;
61385;SDS011;47256;18.904;-99.054;2023-03-14T11:14:53;21.60;;;3.80;;
61385;SDS011;47256;18.904;-99.054;2023-03-14T11:25:54;5.53;;;2.83;;
61385;SDS011;47256;18.904;-99.054;2023-03-14T11:33:52;5.93;;;3.47;;
61385;SDS011;47256;18.904;-99.054;2023-03-14T11:36:33;5.15;;;3.97;;
61385;SDS011;47256;18.904;-99.054;2023-03-14T11:39:17;9.75;;;3.47;;
61385;SDS011;47256;18.904;-99.054;2023-03-14T11:41:54;5.25;;;3.30;;
61385;SDS011;47256;18.904;-99.054;2023-03-14T11:44:32;13.00;;;4.03;;
61385;SDS011;47256;18.904;-99.054;2023-03-14T11:49:46;12.82;;;3.65;;
61385;SDS011;47256;18.904;-99.054;2023-03-14T11:52:35;6.50;;;3.20;;
61385;SDS011;47256;18.904;-99.054;2023-03-14T11:57:41;6.50;;;3.55;;
61385;SDS011;47256;18.904;-99.054;2023-03-14T12:00:20;5.72;;;3.25;;
61385;SDS011;47256;18.904;-99.054;2023-03-14T12:03:01;9.23;;;3.83;;
61385;SDS011;47256;18.904;-99.054;2023-03-14T12:05:53;8.18;;;3.75;;
61385;SDS011;47256;18.904;-99.054;2023-03-14T12:08:33;12.60;;;3.60;;
61385;SDS011;47256;18.904;-99.054;2023-03-14T12:14:30;29.50;;;9.45;;
61385;SDS011;47256;18.904;-99.054;2023-03-14T12:17:05;26.67;;;9.35;;
61385;SDS011;47256;18.904;-99.054;2023-03-14T12:20:22;41.30;;;12.60;;
61385;SDS011;47256;18.904;-99.054;2023-03-14T12:22:55;88.00;;;25.08;;
61385;SDS011;47256;18.904;-99.054;2023-03-14T12:25:34;55.00;;;14.45;;
61385;SDS011;47256;18.904;-99.054;2023-03-14T12:28:16;74.30;;;21.70;;
61385;SDS011;47256;18.904;-99.054;2023-03-14T12:30:48;49.30;;;15.45;;
61385;SDS011;47256;18.904;-99.054;2023-03-14T12:35:59;38.78;;;12.60;;
61385;SDS011;47256;18.904;-99.054;2023-03-14T12:38:37;39.78;;;12.43;;
61385;SDS011;47256;18.904;-99.054;2023-03-14T12:41:23;39.17;;;12.27;;
61385;SDS011;47256;18.904;-99.054;2023-03-14T12:46:57;38.05;;;11.45;;
61385;SDS011;47256;18.904;-99.054;2023-03-14T12:49:44;31.00;;;9.77;;
61385;SDS011;47256;18.904;-99.054;2023-03-14T12:52:14;47.10;;;10.85;;
61385;SDS011;47256;18.904;-99.054;2023-03-14T12:57:26;42.53;;;11.27;;
61385;SDS011;47256;18.904;-99.054;2023-03-14T13:00:16;37.45;;;15.15;;
61385;SDS011;47256;18.904;-99.054;2023-03-14T13:02:49;33.58;;;11.88;;
61385;SDS011;47256;18.904;-99.054;2023-03-14T13:05:23;26.20;;;10.73;;
61385;SDS011;47256;18.904;-99.054;2023-03-14T13:13:03;30.33;;;9.52;;
61385;SDS011;47256;18.904;-99.054;2023-03-14T13:15:45;27.00;;;7.03;;
61385;SDS011;47256;18.904;-99.054;2023-03-14T13:20:51;9.85;;;4.80;;
61385;SDS011;47256;18.904;-99.054;2023-03-14T13:23:27;26.27;;;5.75;;
61385;SDS011;47256;18.904;-99.054;2023-03-14T13:25:59;9.50;;;4.97;;
61385;SDS011;47256;18.904;-99.054;2023-03-14T13:28:29;15.77;;;5.57;;
61385;SDS011;47256;18.904;-99.054;2023-03-14T13:30:59;10.15;;;4.63;;
61385;SDS011;47256;18.904;-99.054;2023-03-14T13:33:28;11.30;;;3.70;;
61385;SDS011;47256;18.904;-99.054;2023-03-14T13:36:02;6.53;;;3.90;;
61385;SDS011;47256;18.904;-99.054;2023-03-14T13:38:31;29.65;;;5.80;;
61385;SDS011;47256;18.904;-99.054;2023-03-14T13:41:10;14.07;;;4.68;;
61385;SDS011;47256;18.904;-99.054;2023-03-14T13:43:41;7.30;;;4.22;;
61385;SDS011;47256;18.904;-99.054;2023-03-14T13:46:20;12.02;;;5.75;;
61385;SDS011;47256;18.904;-99.054;2023-03-14T13:48:56;11.40;;;5.22;;
61385;SDS011;47256;18.904;-99.054;2023-03-14T13:51:34;15.55;;;6.07;;
61385;SDS011;47256;18.904;-99.054;2023-03-14T13:54:12;10.43;;;5.18;;
61385;SDS011;47256;18.904;-99.054;2023-03-14T13:56:42;7.57;;;3.85;;
61385;SDS011;47256;18.904;-99.054;2023-03-14T14:02:19;8.68;;;3.83;;
61385;SDS011;47256;18.904;-99.054;2023-03-14T14:04:49;7.70;;;3.78;;
61385;SDS011;47256;18.904;-99.054;2023-03-14T14:07:17;5.53;;;3.72;;
61385;SDS011;47256;18.904;-99.054;2023-03-14T14:09:48;6.00;;;4.00;;
61385;SDS011;47256;18.904;-99.054;2023-03-14T14:12:23;6.25;;;3.40;;
61385;SDS011;47256;18.904;-99.054;2023-03-14T14:15:06;11.48;;;3.65;;
61385;SDS011;47256;18.904;-99.054;2023-03-14T14:17:44;7.85;;;4.10;;
61385;SDS011;47256;18.904;-99.054;2023-03-14T14:20:43;7.22;;;4.15;;
61385;SDS011;47256;18.904;-99.054;2023-03-14T14:23:21;7.28;;;4.07;;
61385;SDS011;47256;18.904;-99.054;2023-03-14T14:25:56;32.17;;;7.65;;
61385;SDS011;47256;18.904;-99.054;2023-03-14T14:34:02;16.27;;;4.80;;
61385;SDS011;47256;18.904;-99.054;2023-03-14T14:36:32;10.35;;;3.65;;
61385;SDS011;47256;18.904;-99.054;2023-03-14T14:42:03;7.38;;;3.55;;
61385;SDS011;47256;18.904;-99.054;2023-03-14T14:44:32;25.10;;;6.88;;
61385;SDS011;47256;18.904;-99.054;2023-03-14T14:47:03;13.55;;;4.97;;
61385;SDS011;47256;18.904;-99.054;2023-03-14T14:49:31;11.82;;;5.38;;
61385;SDS011;47256;18.904;-99.054;2023-03-14T14:52:08;15.18;;;6.25;;
61385;SDS011;47256;18.904;-99.054;2023-03-14T14:54:44;15.98;;;7.07;;
61385;SDS011;47256;18.904;-99.054;2023-03-14T14:57:27;15.23;;;6.60;;
61385;SDS011;47256;18.904;-99.054;2023-03-14T15:00:17;19.70;;;7.13;;
61385;SDS011;47256;18.904;-99.054;2023-03-14T15:02:55;58.83;;;8.95;;
61385;SDS011;47256;18.904;-99.054;2023-03-14T15:05:26;20.88;;;7.03;;
61385;SDS011;47256;18.904;-99.054;2023-03-14T15:07:58;20.88;;;7.38;;
61385;SDS011;47256;18.904;-99.054;2023-03-14T15:10:25;12.10;;;4.63;;
61385;SDS011;47256;18.904;-99.054;2023-03-14T15:12:53;20.75;;;4.32;;
61385;SDS011;47256;18.904;-99.054;2023-03-14T15:15:22;8.15;;;4.13;;
61385;SDS011;47256;18.904;-99.054;2023-03-14T15:17:49;14.75;;;4.18;;
61385;SDS011;47256;18.904;-99.054;2023-03-14T15:20:17;10.00;;;3.33;;
61385;SDS011;47256;18.904;-99.054;2023-03-14T15:22:45;11.43;;;3.75;;
61385;SDS011;47256;18.904;-99.054;2023-03-14T15:25:13;5.03;;;3.58;;
61385;SDS011;47256;18.904;-99.054;2023-03-14T15:27:40;5.38;;;3.30;;
61385;SDS011;47256;18.904;-99.054;2023-03-14T15:30:10;3.90;;;2.85;;
61385;SDS011;47256;18.904;-99.054;2023-03-14T15:32:42;4.55;;;3.13;;
61385;SDS011;47256;18.904;-99.054;2023-03-14T15:35:09;16.75;;;3.28;;
61385;SDS011;47256;18.904;-99.054;2023-03-14T15:37:37;6.68;;;2.88;;
61385;SDS011;47256;18.904;-99.054;2023-03-14T15:40:05;4.88;;;3.55;;
61385;SDS011;47256;18.904;-99.054;2023-03-14T15:42:40;10.32;;;2.85;;
61385;SDS011;47256;18.904;-99.054;2023-03-14T15:45:07;6.88;;;3.95;;
61385;SDS011;47256;18.904;-99.054;2023-03-14T15:47:35;5.07;;;4.13;;
61385;SDS011;47256;18.904;-99.054;2023-03-14T15:50:02;6.47;;;3.75;;
61385;SDS011;47256;18.904;-99.054;2023-03-14T15:52:31;14.52;;;3.58;;
61385;SDS011;47256;18.904;-99.054;2023-03-14T15:54:58;14.60;;;3.88;;
61385;SDS011;47256;18.904;-99.054;2023-03-14T15:57:28;12.32;;;5.70;;
61385;SDS011;47256;18.904;-99.054;2023-03-14T15:59:55;8.05;;;3.30;;
61385;SDS011;47256;18.904;-99.054;2023-03-14T16:02:30;27.42;;;4.07;;
61385;SDS011;47256;18.904;-99.054;2023-03-14T16:04:57;3.80;;;2.40;;
61385;SDS011;47256;18.904;-99.054;2023-03-14T16:07:25;6.95;;;3.25;;